sensor_id;sensor_type;location;lat;lon;timestamp;temperature;humidity
3868;DHT22;1949;48.152;11.528;2024-03-23T00:54:37;16.90;38.00
3868;DHT22;1949;48.152;11.528;2024-03-23T00:57:03;16.90;38.00
3868;DHT22;1949;48.152;11.528;2024-03-23T00:59:31;16.90;37.90
3868;DHT22;1949;48.152;11.528;2024-03-23T01:01:56;16.90;37.90
3868;DHT22;1949;48.152;11.528;2024-03-23T01:04:22;16.90;37.90
3868;DHT22;1949;48.152;11.528;2024-03-23T01:06:48;16.90;37.90
3868;DHT22;1949;48.152;11.528;2024-03-23T01:09:15;16.90;38.00
3868;DHT22;1949;48.152;11.528;2024-03-23T01:11:41;16.90;37.90
3868;DHT22;1949;48.152;11.528;2024-03-23T01:14:08;16.90;38.00
3868;DHT22;1949;48.152;11.528;2024-03-23T01:16:34;16.90;38.40
3868;DHT22;1949;48.152;11.528;2024-03-23T01:18:59;16.90;37.90
3868;DHT22;1949;48.152;11.528;2024-03-23T01:21:26;16.90;37.90
3868;DHT22;1949;48.152;11.528;2024-03-23T01:23:52;16.90;37.90
3868;DHT22;1949;48.152;11.528;2024-03-23T01:26:18;16.90;37.90
3868;DHT22;1949;48.152;11.528;2024-03-23T01:28:44;16.90;38.00
3868;DHT22;1949;48.152;11.528;2024-03-23T01:31:10;16.90;37.90
3868;DHT22;1949;48.152;11.528;2024-03-23T01:33:37;16.90;37.90
3868;DHT22;1949;48.152;11.528;2024-03-23T01:36:04;16.90;37.90
3868;DHT22;1949;48.152;11.528;2024-03-23T01:38:30;16.90;37.90
3868;DHT22;1949;48.152;11.528;2024-03-23T01:40:59;16.90;38.00
3868;DHT22;1949;48.152;11.528;2024-03-23T01:43:25;16.90;37.90
3868;DHT22;1949;48.152;11.528;2024-03-23T01:45:53;16.80;37.90
3868;DHT22;1949;48.152;11.528;2024-03-23T01:48:21;16.80;37.90
3868;DHT22;1949;48.152;11.528;2024-03-23T01:50:48;16.70;37.90
3868;DHT22;1949;48.152;11.528;2024-03-23T01:53:15;16.70;38.00
3868;DHT22;1949;48.152;11.528;2024-03-23T01:55:48;16.70;38.00
3868;DHT22;1949;48.152;11.528;2024-03-23T01:58:16;16.60;38.00
3868;DHT22;1949;48.152;11.528;2024-03-23T02:00:43;16.60;38.00
3868;DHT22;1949;48.152;11.528;2024-03-23T02:03:28;16.60;38.10
3868;DHT22;1949;48.152;11.528;2024-03-23T02:05:54;16.60;38.10
3868;DHT22;1949;48.152;11.528;2024-03-23T02:08:22;16.60;38.20
3868;DHT22;1949;48.152;11.528;2024-03-23T02:10:53;16.50;38.20
3868;DHT22;1949;48.152;11.528;2024-03-23T02:13:19;16.50;38.30
3868;DHT22;1949;48.152;11.528;2024-03-23T02:15:45;16.50;38.30
3868;DHT22;1949;48.152;11.528;2024-03-23T02:18:11;16.50;38.40
3868;DHT22;1949;48.152;11.528;2024-03-23T02:20:38;16.50;38.40
3868;DHT22;1949;48.152;11.528;2024-03-23T02:23:05;16.50;38.40
3868;DHT22;1949;48.152;11.528;2024-03-23T02:25:35;16.50;38.50
3868;DHT22;1949;48.152;11.528;2024-03-23T02:28:01;16.50;38.50
3868;DHT22;1949;48.152;11.528;2024-03-23T02:30:32;16.50;38.50
3868;DHT22;1949;48.152;11.528;2024-03-23T02:32:58;16.50;38.50
3868;DHT22;1949;48.152;11.528;2024-03-23T02:35:29;16.50;38.40
3868;DHT22;1949;48.152;11.528;2024-03-23T02:37:55;16.50;38.50
3868;DHT22;1949;48.152;11.528;2024-03-23T02:40:28;16.50;38.50
3868;DHT22;1949;48.152;11.528;2024-03-23T02:42:54;16.40;38.50
3868;DHT22;1949;48.152;11.528;2024-03-23T02:45:20;16.40;38.50
3868;DHT22;1949;48.152;11.528;2024-03-23T02:47:48;16.40;38.60
3868;DHT22;1949;48.152;11.528;2024-03-23T02:50:20;16.30;38.60
3868;DHT22;1949;48.152;11.528;2024-03-23T02:52:46;16.30;38.70
3868;DHT22;1949;48.152;11.528;2024-03-23T02:55:12;16.20;38.60
3868;DHT22;1949;48.152;11.528;2024-03-23T02:57:41;16.20;38.80
3868;DHT22;1949;48.152;11.528;2024-03-23T03:00:07;16.20;38.90
3868;DHT22;1949;48.152;11.528;2024-03-23T03:02:34;16.20;39.00
3868;DHT22;1949;48.152;11.528;2024-03-23T03:05:01;16.20;39.00
3868;DHT22;1949;48.152;11.528;2024-03-23T03:07:26;16.20;39.00
3868;DHT22;1949;48.152;11.528;2024-03-23T03:09:52;16.20;39.00
3868;DHT22;1949;48.152;11.528;2024-03-23T03:12:18;16.20;39.00
3868;DHT22;1949;48.152;11.528;2024-03-23T03:14:46;16.10;39.00
3868;DHT22;1949;48.152;11.528;2024-03-23T03:17:12;16.10;39.00
3868;DHT22;1949;48.152;11.528;2024-03-23T03:19:46;16.10;39.20
3868;DHT22;1949;48.152;11.528;2024-03-23T03:22:12;16.10;39.30
3868;DHT22;1949;48.152;11.528;2024-03-23T03:24:38;16.00;39.30
3868;DHT22;1949;48.152;11.528;2024-03-23T03:27:10;16.00;39.20
3868;DHT22;1949;48.152;11.528;2024-03-23T03:29:36;16.00;39.30
3868;DHT22;1949;48.152;11.528;2024-03-23T03:32:03;16.00;39.40
3868;DHT22;1949;48.152;11.528;2024-03-23T03:34:29;15.90;39.30
3868;DHT22;1949;48.152;11.528;2024-03-23T03:36:56;15.90;39.30
3868;DHT22;1949;48.152;11.528;2024-03-23T03:39:22;15.90;39.50
3868;DHT22;1949;48.152;11.528;2024-03-23T03:41:49;15.80;40.00
3868;DHT22;1949;48.152;11.528;2024-03-23T03:44:15;15.70;39.90
3868;DHT22;1949;48.152;11.528;2024-03-23T03:46:40;15.70;39.50
3868;DHT22;1949;48.152;11.528;2024-03-23T03:49:06;15.60;39.50
3868;DHT22;1949;48.152;11.528;2024-03-23T03:51:32;15.60;39.60
3868;DHT22;1949;48.152;11.528;2024-03-23T03:53:59;15.60;39.80
3868;DHT22;1949;48.152;11.528;2024-03-23T03:56:25;15.60;39.70
3868;DHT22;1949;48.152;11.528;2024-03-23T03:58:54;15.60;39.80
3868;DHT22;1949;48.152;11.528;2024-03-23T04:01:20;15.60;39.90
3868;DHT22;1949;48.152;11.528;2024-03-23T04:03:47;15.60;39.80
3868;DHT22;1949;48.152;11.528;2024-03-23T04:06:19;15.60;39.90
3868;DHT22;1949;48.152;11.528;2024-03-23T04:08:48;15.60;40.00
3868;DHT22;1949;48.152;11.528;2024-03-23T04:11:15;15.60;40.00
3868;DHT22;1949;48.152;11.528;2024-03-23T04:13:41;15.60;39.90
3868;DHT22;1949;48.152;11.528;2024-03-23T04:16:07;15.60;39.90
3868;DHT22;1949;48.152;11.528;2024-03-23T04:18:35;15.60;40.00
3868;DHT22;1949;48.152;11.528;2024-03-23T04:21:01;15.60;40.10
3868;DHT22;1949;48.152;11.528;2024-03-23T04:23:26;15.50;40.10
3868;DHT22;1949;48.152;11.528;2024-03-23T04:25:53;15.60;40.10
3868;DHT22;1949;48.152;11.528;2024-03-23T04:28:20;15.60;40.00
3868;DHT22;1949;48.152;11.528;2024-03-23T04:30:45;15.60;40.00
3868;DHT22;1949;48.152;11.528;2024-03-23T04:33:11;15.50;40.00
3868;DHT22;1949;48.152;11.528;2024-03-23T04:35:38;15.50;40.10
3868;DHT22;1949;48.152;11.528;2024-03-23T04:38:04;15.50;40.10
3868;DHT22;1949;48.152;11.528;2024-03-23T04:40:32;15.50;40.20
3868;DHT22;1949;48.152;11.528;2024-03-23T04:43:00;15.50;40.20
3868;DHT22;1949;48.152;11.528;2024-03-23T04:45:26;15.50;40.10
3868;DHT22;1949;48.152;11.528;2024-03-23T04:47:52;15.50;40.10
3868;DHT22;1949;48.152;11.528;2024-03-23T04:50:20;15.50;40.30
3868;DHT22;1949;48.152;11.528;2024-03-23T04:52:45;15.60;40.20
3868;DHT22;1949;48.152;11.528;2024-03-23T04:55:13;15.50;40.10
3868;DHT22;1949;48.152;11.528;2024-03-23T04:57:40;15.60;40.30
3868;DHT22;1949;48.152;11.528;2024-03-23T05:00:06;15.60;40.30
3868;DHT22;1949;48.152;11.528;2024-03-23T05:02:43;15.60;40.20
3868;DHT22;1949;48.152;11.528;2024-03-23T05:05:10;15.60;40.10
3868;DHT22;1949;48.152;11.528;2024-03-23T05:07:36;15.60;40.10
3868;DHT22;1949;48.152;11.528;2024-03-23T05:10:02;15.60;40.10
3868;DHT22;1949;48.152;11.528;2024-03-23T05:12:30;15.50;40.10
3868;DHT22;1949;48.152;11.528;2024-03-23T05:14:57;15.60;40.10
3868;DHT22;1949;48.152;11.528;2024-03-23T05:17:24;15.50;40.10
3868;DHT22;1949;48.152;11.528;2024-03-23T05:19:51;15.60;40.10
3868;DHT22;1949;48.152;11.528;2024-03-23T05:22:17;15.60;40.10
3868;DHT22;1949;48.152;11.528;2024-03-23T05:24:45;15.60;40.60
3868;DHT22;1949;48.152;11.528;2024-03-23T05:27:14;15.60;40.10
3868;DHT22;1949;48.152;11.528;2024-03-23T05:29:48;15.60;40.10
3868;DHT22;1949;48.152;11.528;2024-03-23T05:32:14;15.60;40.10
3868;DHT22;1949;48.152;11.528;2024-03-23T05:34:40;15.60;40.00
3868;DHT22;1949;48.152;11.528;2024-03-23T05:37:08;15.60;40.00
3868;DHT22;1949;48.152;11.528;2024-03-23T05:39:33;15.60;40.00
3868;DHT22;1949;48.152;11.528;2024-03-23T05:42:06;15.60;40.00
3868;DHT22;1949;48.152;11.528;2024-03-23T05:44:40;15.70;40.00
3868;DHT22;1949;48.152;11.528;2024-03-23T05:47:07;15.70;40.00
3868;DHT22;1949;48.152;11.528;2024-03-23T05:49:34;15.70;40.00
3868;DHT22;1949;48.152;11.528;2024-03-23T05:52:00;15.70;39.90
3868;DHT22;1949;48.152;11.528;2024-03-23T05:54:28;15.70;39.90
3868;DHT22;1949;48.152;11.528;2024-03-23T05:56:56;15.80;39.90
3868;DHT22;1949;48.152;11.528;2024-03-23T05:59:22;15.80;40.00
3868;DHT22;1949;48.152;11.528;2024-03-23T06:01:52;15.80;39.90
3868;DHT22;1949;48.152;11.528;2024-03-23T06:04:19;15.80;39.90
3868;DHT22;1949;48.152;11.528;2024-03-23T06:07:01;15.80;39.90
3868;DHT22;1949;48.152;11.528;2024-03-23T06:09:27;15.90;39.90
3868;DHT22;1949;48.152;11.528;2024-03-23T06:11:55;15.90;39.90
3868;DHT22;1949;48.152;11.528;2024-03-23T06:14:20;16.00;40.00
3868;DHT22;1949;48.152;11.528;2024-03-23T06:16:46;16.00;40.00
3868;DHT22;1949;48.152;11.528;2024-03-23T06:19:13;16.00;39.90
3868;DHT22;1949;48.152;11.528;2024-03-23T06:21:43;16.10;40.00
3868;DHT22;1949;48.152;11.528;2024-03-23T06:24:12;16.10;39.90
3868;DHT22;1949;48.152;11.528;2024-03-23T06:26:40;16.20;39.90
3868;DHT22;1949;48.152;11.528;2024-03-23T06:29:06;16.20;39.80
3868;DHT22;1949;48.152;11.528;2024-03-23T06:31:40;16.20;39.80
3868;DHT22;1949;48.152;11.528;2024-03-23T06:34:07;16.30;39.80
3868;DHT22;1949;48.152;11.528;2024-03-23T06:36:42;16.30;39.70
3868;DHT22;1949;48.152;11.528;2024-03-23T06:39:10;16.30;39.60
3868;DHT22;1949;48.152;11.528;2024-03-23T06:41:56;16.40;39.70
3868;DHT22;1949;48.152;11.528;2024-03-23T06:44:24;16.40;39.70
3868;DHT22;1949;48.152;11.528;2024-03-23T06:47:03;16.40;39.70
3868;DHT22;1949;48.152;11.528;2024-03-23T06:49:35;16.50;39.70
3868;DHT22;1949;48.152;11.528;2024-03-23T06:52:05;16.50;39.70
3868;DHT22;1949;48.152;11.528;2024-03-23T06:54:34;16.60;39.70
3868;DHT22;1949;48.152;11.528;2024-03-23T06:57:00;16.60;39.70
3868;DHT22;1949;48.152;11.528;2024-03-23T06:59:28;16.70;39.70
3868;DHT22;1949;48.152;11.528;2024-03-23T07:02:00;16.80;39.80
3868;DHT22;1949;48.152;11.528;2024-03-23T07:04:27;16.90;39.80
3868;DHT22;1949;48.152;11.528;2024-03-23T07:10:17;17.00;39.80
3868;DHT22;1949;48.152;11.528;2024-03-23T07:12:43;17.10;39.80
3868;DHT22;1949;48.152;11.528;2024-03-23T07:15:37;17.10;39.80
3868;DHT22;1949;48.152;11.528;2024-03-23T07:18:10;17.20;40.40
3868;DHT22;1949;48.152;11.528;2024-03-23T07:20:38;17.20;39.60
3868;DHT22;1949;48.152;11.528;2024-03-23T07:23:05;17.30;39.70
3868;DHT22;1949;48.152;11.528;2024-03-23T07:25:32;17.30;39.60
3868;DHT22;1949;48.152;11.528;2024-03-23T07:28:02;17.30;39.60
3868;DHT22;1949;48.152;11.528;2024-03-23T07:30:29;17.30;39.70
3868;DHT22;1949;48.152;11.528;2024-03-23T07:32:57;17.40;39.80
3868;DHT22;1949;48.152;11.528;2024-03-23T07:35:32;17.40;39.70
3868;DHT22;1949;48.152;11.528;2024-03-23T07:37:58;17.40;39.80
3868;DHT22;1949;48.152;11.528;2024-03-23T07:40:26;17.50;39.90
3868;DHT22;1949;48.152;11.528;2024-03-23T07:42:52;17.50;39.80
3868;DHT22;1949;48.152;11.528;2024-03-23T07:45:19;17.50;40.00
3868;DHT22;1949;48.152;11.528;2024-03-23T07:47:45;17.40;40.20
3868;DHT22;1949;48.152;11.528;2024-03-23T07:50:24;17.30;40.60
3868;DHT22;1949;48.152;11.528;2024-03-23T07:52:50;17.20;40.90
3868;DHT22;1949;48.152;11.528;2024-03-23T07:55:16;17.10;40.90
3868;DHT22;1949;48.152;11.528;2024-03-23T07:57:51;17.00;41.20
3868;DHT22;1949;48.152;11.528;2024-03-23T08:00:17;16.90;41.70
3868;DHT22;1949;48.152;11.528;2024-03-23T08:02:58;16.90;42.20
3868;DHT22;1949;48.152;11.528;2024-03-23T08:05:30;16.70;41.40
3868;DHT22;1949;48.152;11.528;2024-03-23T08:07:55;16.60;41.80
3868;DHT22;1949;48.152;11.528;2024-03-23T08:10:21;16.40;41.90
3868;DHT22;1949;48.152;11.528;2024-03-23T08:12:47;16.30;42.20
3868;DHT22;1949;48.152;11.528;2024-03-23T08:15:13;16.20;42.60
3868;DHT22;1949;48.152;11.528;2024-03-23T08:17:41;16.20;42.80
3868;DHT22;1949;48.152;11.528;2024-03-23T08:20:09;16.10;43.00
3868;DHT22;1949;48.152;11.528;2024-03-23T08:22:36;15.90;43.00
3868;DHT22;1949;48.152;11.528;2024-03-23T08:25:02;15.80;43.30
3868;DHT22;1949;48.152;11.528;2024-03-23T08:27:28;15.80;43.70
3868;DHT22;1949;48.152;11.528;2024-03-23T08:29:54;15.80;44.00
3868;DHT22;1949;48.152;11.528;2024-03-23T08:32:20;15.70;44.00
3868;DHT22;1949;48.152;11.528;2024-03-23T08:34:46;15.70;44.20
3868;DHT22;1949;48.152;11.528;2024-03-23T08:37:12;15.70;43.90
3868;DHT22;1949;48.152;11.528;2024-03-23T08:39:37;15.60;43.80
3868;DHT22;1949;48.152;11.528;2024-03-23T08:42:03;15.50;43.90
3868;DHT22;1949;48.152;11.528;2024-03-23T08:44:29;15.50;44.00
3868;DHT22;1949;48.152;11.528;2024-03-23T08:47:02;15.40;44.10
3868;DHT22;1949;48.152;11.528;2024-03-23T08:49:28;15.30;44.30
3868;DHT22;1949;48.152;11.528;2024-03-23T08:51:54;15.30;44.30
3868;DHT22;1949;48.152;11.528;2024-03-23T08:54:20;15.20;44.20
3868;DHT22;1949;48.152;11.528;2024-03-23T08:56:48;15.10;44.30
3868;DHT22;1949;48.152;11.528;2024-03-23T08:59:15;15.10;44.60
3868;DHT22;1949;48.152;11.528;2024-03-23T09:01:40;15.10;44.60
3868;DHT22;1949;48.152;11.528;2024-03-23T09:04:06;15.10;44.40
3868;DHT22;1949;48.152;11.528;2024-03-23T09:06:33;15.00;44.60
3868;DHT22;1949;48.152;11.528;2024-03-23T09:08:59;14.90;44.70
3868;DHT22;1949;48.152;11.528;2024-03-23T09:11:31;14.90;44.80
3868;DHT22;1949;48.152;11.528;2024-03-23T09:13:56;14.90;45.10
3868;DHT22;1949;48.152;11.528;2024-03-23T09:16:23;14.80;45.20
3868;DHT22;1949;48.152;11.528;2024-03-23T09:18:49;14.90;45.20
3868;DHT22;1949;48.152;11.528;2024-03-23T09:21:15;14.90;45.30
3868;DHT22;1949;48.152;11.528;2024-03-23T09:23:43;14.90;45.30
3868;DHT22;1949;48.152;11.528;2024-03-23T09:26:09;14.90;45.40
3868;DHT22;1949;48.152;11.528;2024-03-23T09:28:35;14.80;45.30
3868;DHT22;1949;48.152;11.528;2024-03-23T09:31:05;14.80;45.50
3868;DHT22;1949;48.152;11.528;2024-03-23T09:33:31;14.80;45.70
3868;DHT22;1949;48.152;11.528;2024-03-23T09:35:56;14.80;45.60
3868;DHT22;1949;48.152;11.528;2024-03-23T09:38:23;14.80;45.80
3868;DHT22;1949;48.152;11.528;2024-03-23T09:40:53;14.80;45.80
3868;DHT22;1949;48.152;11.528;2024-03-23T09:43:19;14.80;45.70
3868;DHT22;1949;48.152;11.528;2024-03-23T09:45:46;14.70;45.50
3868;DHT22;1949;48.152;11.528;2024-03-23T09:48:12;14.70;45.40
3868;DHT22;1949;48.152;11.528;2024-03-23T09:50:39;14.60;45.30
3868;DHT22;1949;48.152;11.528;2024-03-23T09:53:07;14.60;45.10
3868;DHT22;1949;48.152;11.528;2024-03-23T09:55:33;14.50;45.40
3868;DHT22;1949;48.152;11.528;2024-03-23T09:58:01;14.50;45.40
3868;DHT22;1949;48.152;11.528;2024-03-23T10:00:27;14.50;45.30
3868;DHT22;1949;48.152;11.528;2024-03-23T10:02:56;14.50;45.20
3868;DHT22;1949;48.152;11.528;2024-03-23T10:05:29;14.40;45.00
3868;DHT22;1949;48.152;11.528;2024-03-23T10:07:55;14.30;44.70
3868;DHT22;1949;48.152;11.528;2024-03-23T10:10:21;14.20;44.80
3868;DHT22;1949;48.152;11.528;2024-03-23T10:12:49;14.00;44.50
3868;DHT22;1949;48.152;11.528;2024-03-23T10:15:23;13.90;44.80
3868;DHT22;1949;48.152;11.528;2024-03-23T10:17:49;13.90;45.00
3868;DHT22;1949;48.152;11.528;2024-03-23T10:20:23;13.80;44.90
3868;DHT22;1949;48.152;11.528;2024-03-23T10:22:51;13.80;45.20
3868;DHT22;1949;48.152;11.528;2024-03-23T10:25:24;13.80;45.50
3868;DHT22;1949;48.152;11.528;2024-03-23T10:27:59;13.80;45.40
3868;DHT22;1949;48.152;11.528;2024-03-23T10:30:26;13.80;45.60
3868;DHT22;1949;48.152;11.528;2024-03-23T10:33:13;13.80;46.10
3868;DHT22;1949;48.152;11.528;2024-03-23T10:35:40;13.80;45.40
3868;DHT22;1949;48.152;11.528;2024-03-23T10:38:07;13.80;45.60
3868;DHT22;1949;48.152;11.528;2024-03-23T10:40:35;13.80;45.50
3868;DHT22;1949;48.152;11.528;2024-03-23T10:43:03;13.80;45.60
3868;DHT22;1949;48.152;11.528;2024-03-23T10:45:30;13.90;45.60
3868;DHT22;1949;48.152;11.528;2024-03-23T10:47:56;13.80;45.10
3868;DHT22;1949;48.152;11.528;2024-03-23T10:50:23;13.60;45.00
3868;DHT22;1949;48.152;11.528;2024-03-23T10:52:49;13.60;45.10
3868;DHT22;1949;48.152;11.528;2024-03-23T10:55:18;13.50;44.90
3868;DHT22;1949;48.152;11.528;2024-03-23T10:57:56;13.40;45.00
3868;DHT22;1949;48.152;11.528;2024-03-23T11:00:25;13.40;44.90
3868;DHT22;1949;48.152;11.528;2024-03-23T11:02:51;13.40;45.00
3868;DHT22;1949;48.152;11.528;2024-03-23T11:07:53;13.30;45.20
3868;DHT22;1949;48.152;11.528;2024-03-23T11:10:29;13.40;45.30
3868;DHT22;1949;48.152;11.528;2024-03-23T11:13:22;13.40;45.20
3868;DHT22;1949;48.152;11.528;2024-03-23T11:15:49;13.40;45.10
3868;DHT22;1949;48.152;11.528;2024-03-23T11:18:20;13.50;45.30
3868;DHT22;1949;48.152;11.528;2024-03-23T11:20:46;13.60;46.00
3868;DHT22;1949;48.152;11.528;2024-03-23T11:23:28;13.60;45.20
3868;DHT22;1949;48.152;11.528;2024-03-23T11:25:54;13.60;45.00
3868;DHT22;1949;48.152;11.528;2024-03-23T11:28:20;13.60;45.20
3868;DHT22;1949;48.152;11.528;2024-03-23T11:30:47;13.70;45.10
3868;DHT22;1949;48.152;11.528;2024-03-23T11:33:15;13.70;45.20
3868;DHT22;1949;48.152;11.528;2024-03-23T11:35:41;13.70;45.20
3868;DHT22;1949;48.152;11.528;2024-03-23T11:38:17;13.70;45.20
3868;DHT22;1949;48.152;11.528;2024-03-23T11:40:48;13.70;45.20
3868;DHT22;1949;48.152;11.528;2024-03-23T11:43:16;13.70;45.10
3868;DHT22;1949;48.152;11.528;2024-03-23T11:45:49;13.70;45.00
3868;DHT22;1949;48.152;11.528;2024-03-23T11:48:21;13.70;45.00
3868;DHT22;1949;48.152;11.528;2024-03-23T11:50:49;13.70;45.10
3868;DHT22;1949;48.152;11.528;2024-03-23T11:53:22;13.70;45.10
3868;DHT22;1949;48.152;11.528;2024-03-23T11:58:18;13.80;45.40
3868;DHT22;1949;48.152;11.528;2024-03-23T12:00:57;14.00;45.80
3868;DHT22;1949;48.152;11.528;2024-03-23T12:03:25;14.00;45.50
3868;DHT22;1949;48.152;11.528;2024-03-23T12:05:53;14.10;45.30
3868;DHT22;1949;48.152;11.528;2024-03-23T12:10:52;14.10;45.20
3868;DHT22;1949;48.152;11.528;2024-03-23T12:13:21;14.20;44.80
3868;DHT22;1949;48.152;11.528;2024-03-23T12:15:50;14.10;44.50
3868;DHT22;1949;48.152;11.528;2024-03-23T12:18:17;14.00;44.20
3868;DHT22;1949;48.152;11.528;2024-03-23T12:20:43;14.00;44.10
3868;DHT22;1949;48.152;11.528;2024-03-23T12:23:14;13.90;43.90
3868;DHT22;1949;48.152;11.528;2024-03-23T12:25:41;13.90;44.00
3868;DHT22;1949;48.152;11.528;2024-03-23T12:28:07;13.90;43.80
3868;DHT22;1949;48.152;11.528;2024-03-23T12:30:35;13.90;43.60
3868;DHT22;1949;48.152;11.528;2024-03-23T12:33:06;13.80;43.30
3868;DHT22;1949;48.152;11.528;2024-03-23T12:35:32;13.80;43.30
3868;DHT22;1949;48.152;11.528;2024-03-23T12:38:00;13.80;43.50
3868;DHT22;1949;48.152;11.528;2024-03-23T12:40:26;13.80;43.50
3868;DHT22;1949;48.152;11.528;2024-03-23T12:42:54;13.80;43.50
3868;DHT22;1949;48.152;11.528;2024-03-23T12:45:22;14.00;43.50
3868;DHT22;1949;48.152;11.528;2024-03-23T12:47:53;13.90;43.30
3868;DHT22;1949;48.152;11.528;2024-03-23T12:50:21;14.10;43.40
3868;DHT22;1949;48.152;11.528;2024-03-23T12:52:47;14.10;43.20
3868;DHT22;1949;48.152;11.528;2024-03-23T12:55:13;14.10;43.10
3868;DHT22;1949;48.152;11.528;2024-03-23T12:57:39;14.10;43.00
3868;DHT22;1949;48.152;11.528;2024-03-23T13:00:07;14.10;42.90
3868;DHT22;1949;48.152;11.528;2024-03-23T13:02:38;14.10;43.00
3868;DHT22;1949;48.152;11.528;2024-03-23T13:05:05;14.10;43.10
3868;DHT22;1949;48.152;11.528;2024-03-23T13:07:31;14.20;43.00
3868;DHT22;1949;48.152;11.528;2024-03-23T13:09:57;14.20;43.20
3868;DHT22;1949;48.152;11.528;2024-03-23T13:12:23;14.20;42.80
3868;DHT22;1949;48.152;11.528;2024-03-23T13:14:50;14.20;42.60
3868;DHT22;1949;48.152;11.528;2024-03-23T13:17:18;14.10;42.40
3868;DHT22;1949;48.152;11.528;2024-03-23T13:19:48;14.10;42.30
3868;DHT22;1949;48.152;11.528;2024-03-23T13:22:16;14.00;42.50
3868;DHT22;1949;48.152;11.528;2024-03-23T13:24:42;14.10;42.40
3868;DHT22;1949;48.152;11.528;2024-03-23T13:27:13;14.10;42.40
3868;DHT22;1949;48.152;11.528;2024-03-23T13:29:40;14.10;42.20
3868;DHT22;1949;48.152;11.528;2024-03-23T13:32:17;14.10;42.30
3868;DHT22;1949;48.152;11.528;2024-03-23T13:35:01;14.10;42.20
3868;DHT22;1949;48.152;11.528;2024-03-23T13:37:28;14.10;42.00
3868;DHT22;1949;48.152;11.528;2024-03-23T13:39:54;14.00;41.70
3868;DHT22;1949;48.152;11.528;2024-03-23T13:42:20;14.00;41.90
3868;DHT22;1949;48.152;11.528;2024-03-23T13:44:46;14.00;41.90
3868;DHT22;1949;48.152;11.528;2024-03-23T13:47:12;14.00;41.90
3868;DHT22;1949;48.152;11.528;2024-03-23T13:49:38;14.00;42.00
3868;DHT22;1949;48.152;11.528;2024-03-23T13:52:12;14.00;42.10
3868;DHT22;1949;48.152;11.528;2024-03-23T13:54:38;14.00;41.90
3868;DHT22;1949;48.152;11.528;2024-03-23T13:57:04;14.00;42.00
3868;DHT22;1949;48.152;11.528;2024-03-23T13:59:36;13.90;42.00
3868;DHT22;1949;48.152;11.528;2024-03-23T14:02:03;13.70;41.90
3868;DHT22;1949;48.152;11.528;2024-03-23T14:04:29;13.60;42.00
3868;DHT22;1949;48.152;11.528;2024-03-23T14:07:01;13.40;42.30
3868;DHT22;1949;48.152;11.528;2024-03-23T14:09:28;13.30;42.80
3868;DHT22;1949;48.152;11.528;2024-03-23T14:11:58;13.30;43.00
3868;DHT22;1949;48.152;11.528;2024-03-23T14:14:26;13.40;43.10
3868;DHT22;1949;48.152;11.528;2024-03-23T14:17:05;13.30;42.90
3868;DHT22;1949;48.152;11.528;2024-03-23T14:19:40;13.30;43.00
3868;DHT22;1949;48.152;11.528;2024-03-23T14:22:06;13.30;43.10
3868;DHT22;1949;48.152;11.528;2024-03-23T14:25:00;13.30;43.30
3868;DHT22;1949;48.152;11.528;2024-03-23T14:28:01;13.30;43.50
3868;DHT22;1949;48.152;11.528;2024-03-23T14:33:39;13.40;43.20
3868;DHT22;1949;48.152;11.528;2024-03-23T14:36:33;13.50;43.10
3868;DHT22;1949;48.152;11.528;2024-03-23T14:42:15;13.50;42.40
3868;DHT22;1949;48.152;11.528;2024-03-23T14:44:45;13.40;42.40
3868;DHT22;1949;48.152;11.528;2024-03-23T14:47:11;13.40;42.40
3868;DHT22;1949;48.152;11.528;2024-03-23T14:49:56;13.40;42.20
3868;DHT22;1949;48.152;11.528;2024-03-23T14:52:26;13.40;42.00
3868;DHT22;1949;48.152;11.528;2024-03-23T14:58:14;13.40;41.90
3868;DHT22;1949;48.152;11.528;2024-03-23T15:00:40;13.40;41.70
3868;DHT22;1949;48.152;11.528;2024-03-23T15:03:06;13.30;41.60
3868;DHT22;1949;48.152;11.528;2024-03-23T15:05:31;13.30;41.60
3868;DHT22;1949;48.152;11.528;2024-03-23T15:07:57;13.30;41.60
3868;DHT22;1949;48.152;11.528;2024-03-23T15:10:25;13.20;41.30
3868;DHT22;1949;48.152;11.528;2024-03-23T15:12:51;13.10;41.30
3868;DHT22;1949;48.152;11.528;2024-03-23T15:15:17;13.10;41.70
3868;DHT22;1949;48.152;11.528;2024-03-23T15:17:43;12.90;41.70
3868;DHT22;1949;48.152;11.528;2024-03-23T15:20:10;12.90;41.60
3868;DHT22;1949;48.152;11.528;2024-03-23T15:22:37;12.80;41.70
3868;DHT22;1949;48.152;11.528;2024-03-23T15:25:03;12.70;41.80
3868;DHT22;1949;48.152;11.528;2024-03-23T15:27:29;12.60;41.90
3868;DHT22;1949;48.152;11.528;2024-03-23T15:29:56;12.50;42.00
3868;DHT22;1949;48.152;11.528;2024-03-23T15:32:23;12.50;42.30
3868;DHT22;1949;48.152;11.528;2024-03-23T15:34:49;12.40;42.00
3868;DHT22;1949;48.152;11.528;2024-03-23T15:37:15;12.40;42.30
3868;DHT22;1949;48.152;11.528;2024-03-23T15:39:40;12.40;42.80
3868;DHT22;1949;48.152;11.528;2024-03-23T15:42:10;12.50;43.20
3868;DHT22;1949;48.152;11.528;2024-03-23T15:44:36;12.60;42.70
3868;DHT22;1949;48.152;11.528;2024-03-23T15:47:02;12.60;42.60
3868;DHT22;1949;48.152;11.528;2024-03-23T15:49:28;12.60;42.50
3868;DHT22;1949;48.152;11.528;2024-03-23T15:51:53;12.50;42.40
3868;DHT22;1949;48.152;11.528;2024-03-23T15:54:19;12.50;42.70
3868;DHT22;1949;48.152;11.528;2024-03-23T15:56:47;12.50;43.50
3868;DHT22;1949;48.152;11.528;2024-03-23T15:59:13;12.50;43.00
3868;DHT22;1949;48.152;11.528;2024-03-23T16:01:40;12.70;43.50
3868;DHT22;1949;48.152;11.528;2024-03-23T16:04:06;12.80;43.40
3868;DHT22;1949;48.152;11.528;2024-03-23T16:06:32;12.90;43.30
3868;DHT22;1949;48.152;11.528;2024-03-23T16:08:58;13.10;43.80
3868;DHT22;1949;48.152;11.528;2024-03-23T16:11:23;13.00;42.60
3868;DHT22;1949;48.152;11.528;2024-03-23T16:13:49;12.90;42.50
3868;DHT22;1949;48.152;11.528;2024-03-23T16:16:15;12.80;42.60
3868;DHT22;1949;48.152;11.528;2024-03-23T16:18:41;12.70;42.70
3868;DHT22;1949;48.152;11.528;2024-03-23T16:21:09;12.50;42.70
3868;DHT22;1949;48.152;11.528;2024-03-23T16:23:36;12.40;42.90
3868;DHT22;1949;48.152;11.528;2024-03-23T16:26:07;12.40;43.20
3868;DHT22;1949;48.152;11.528;2024-03-23T16:28:34;12.40;43.20
3868;DHT22;1949;48.152;11.528;2024-03-23T16:31:05;12.40;43.20
3868;DHT22;1949;48.152;11.528;2024-03-23T16:33:35;12.30;43.00
3868;DHT22;1949;48.152;11.528;2024-03-23T16:36:09;12.30;43.30
3868;DHT22;1949;48.152;11.528;2024-03-23T16:38:38;12.30;43.30
3868;DHT22;1949;48.152;11.528;2024-03-23T16:41:11;12.40;43.70
3868;DHT22;1949;48.152;11.528;2024-03-23T16:43:43;12.50;43.60
3868;DHT22;1949;48.152;11.528;2024-03-23T16:46:11;12.60;43.60
3868;DHT22;1949;48.152;11.528;2024-03-23T16:48:43;12.60;43.50
3868;DHT22;1949;48.152;11.528;2024-03-23T16:51:11;12.70;43.40
3868;DHT22;1949;48.152;11.528;2024-03-23T16:53:38;12.60;43.20
3868;DHT22;1949;48.152;11.528;2024-03-23T16:56:07;12.50;43.10
3868;DHT22;1949;48.152;11.528;2024-03-23T16:58:35;12.50;43.30
3868;DHT22;1949;48.152;11.528;2024-03-23T17:01:12;12.50;43.10
3868;DHT22;1949;48.152;11.528;2024-03-23T17:03:51;12.40;43.00
3868;DHT22;1949;48.152;11.528;2024-03-23T17:06:18;12.30;43.20